sensor_id;sensor_type;location;lat;lon;timestamp;temperature;humidity
31747;DHT22;18319;48.974;8.462;2023-06-22T00:00:11;20.50;99.90
31747;DHT22;18319;48.974;8.462;2023-06-22T00:02:38;20.50;99.90
31747;DHT22;18319;48.974;8.462;2023-06-22T00:05:06;20.50;99.90
31747;DHT22;18319;48.974;8.462;2023-06-22T00:07:33;20.50;99.90
31747;DHT22;18319;48.974;8.462;2023-06-22T00:10:00;20.40;99.90
31747;DHT22;18319;48.974;8.462;2023-06-22T00:12:27;20.50;99.90
31747;DHT22;18319;48.974;8.462;2023-06-22T00:14:53;20.50;99.90
31747;DHT22;18319;48.974;8.462;2023-06-22T00:17:20;20.50;99.90
31747;DHT22;18319;48.974;8.462;2023-06-22T00:19:47;20.50;99.90
31747;DHT22;18319;48.974;8.462;2023-06-22T00:22:20;20.50;99.90
31747;DHT22;18319;48.974;8.462;2023-06-22T00:24:53;20.50;99.90
31747;DHT22;18319;48.974;8.462;2023-06-22T00:27:20;20.50;99.90
31747;DHT22;18319;48.974;8.462;2023-06-22T00:29:47;20.60;99.90
31747;DHT22;18319;48.974;8.462;2023-06-22T00:32:13;20.60;99.90
31747;DHT22;18319;48.974;8.462;2023-06-22T00:34:41;20.70;99.90
31747;DHT22;18319;48.974;8.462;2023-06-22T00:37:08;20.80;99.90
31747;DHT22;18319;48.974;8.462;2023-06-22T00:39:38;20.80;99.90
31747;DHT22;18319;48.974;8.462;2023-06-22T00:42:05;19.90;99.90
31747;DHT22;18319;48.974;8.462;2023-06-22T00:44:32;19.50;99.90
31747;DHT22;18319;48.974;8.462;2023-06-22T00:46:58;19.40;99.90
31747;DHT22;18319;48.974;8.462;2023-06-22T00:49:26;19.40;99.90
31747;DHT22;18319;48.974;8.462;2023-06-22T00:51:53;19.30;99.90
31747;DHT22;18319;48.974;8.462;2023-06-22T00:54:20;19.30;99.90
31747;DHT22;18319;48.974;8.462;2023-06-22T00:56:51;19.10;99.90
31747;DHT22;18319;48.974;8.462;2023-06-22T00:59:20;19.10;99.90
31747;DHT22;18319;48.974;8.462;2023-06-22T01:01:47;19.10;99.90
31747;DHT22;18319;48.974;8.462;2023-06-22T01:04:14;19.10;99.90
31747;DHT22;18319;48.974;8.462;2023-06-22T01:06:47;18.90;99.90
31747;DHT22;18319;48.974;8.462;2023-06-22T01:09:21;18.90;99.90
31747;DHT22;18319;48.974;8.462;2023-06-22T01:11:52;18.80;99.90
31747;DHT22;18319;48.974;8.462;2023-06-22T01:14:24;18.70;99.90
31747;DHT22;18319;48.974;8.462;2023-06-22T01:16:55;18.80;99.90
31747;DHT22;18319;48.974;8.462;2023-06-22T01:19:35;18.70;99.90
31747;DHT22;18319;48.974;8.462;2023-06-22T01:22:03;18.60;99.90
31747;DHT22;18319;48.974;8.462;2023-06-22T01:24:38;18.50;99.90
31747;DHT22;18319;48.974;8.462;2023-06-22T01:27:18;18.50;99.90
31747;DHT22;18319;48.974;8.462;2023-06-22T01:29:55;18.50;99.90
31747;DHT22;18319;48.974;8.462;2023-06-22T01:32:26;18.50;99.90
31747;DHT22;18319;48.974;8.462;2023-06-22T01:34:53;18.40;99.90
31747;DHT22;18319;48.974;8.462;2023-06-22T01:37:20;18.40;99.90
31747;DHT22;18319;48.974;8.462;2023-06-22T01:39:48;18.40;99.90
31747;DHT22;18319;48.974;8.462;2023-06-22T01:42:15;18.30;99.90
31747;DHT22;18319;48.974;8.462;2023-06-22T01:44:42;18.30;99.90
31747;DHT22;18319;48.974;8.462;2023-06-22T01:47:11;18.30;99.90
31747;DHT22;18319;48.974;8.462;2023-06-22T01:49:39;18.30;99.90
31747;DHT22;18319;48.974;8.462;2023-06-22T01:52:07;18.30;99.90
31747;DHT22;18319;48.974;8.462;2023-06-22T01:54:33;18.30;99.90
31747;DHT22;18319;48.974;8.462;2023-06-22T01:57:00;18.30;99.90
31747;DHT22;18319;48.974;8.462;2023-06-22T01:59:32;18.30;99.90
31747;DHT22;18319;48.974;8.462;2023-06-22T02:02:04;18.30;99.90
31747;DHT22;18319;48.974;8.462;2023-06-22T02:04:42;18.30;99.90
31747;DHT22;18319;48.974;8.462;2023-06-22T02:07:14;18.30;99.90
31747;DHT22;18319;48.974;8.462;2023-06-22T02:09:44;18.30;99.90
31747;DHT22;18319;48.974;8.462;2023-06-22T02:12:12;18.30;99.90
31747;DHT22;18319;48.974;8.462;2023-06-22T02:14:40;18.20;99.90
31747;DHT22;18319;48.974;8.462;2023-06-22T02:17:08;18.20;99.90
31747;DHT22;18319;48.974;8.462;2023-06-22T02:19:37;18.20;99.90
31747;DHT22;18319;48.974;8.462;2023-06-22T02:22:04;18.20;99.90
31747;DHT22;18319;48.974;8.462;2023-06-22T02:24:31;18.10;99.90
31747;DHT22;18319;48.974;8.462;2023-06-22T02:26:59;18.10;99.90
31747;DHT22;18319;48.974;8.462;2023-06-22T02:29:26;18.10;99.90
31747;DHT22;18319;48.974;8.462;2023-06-22T02:31:53;18.10;99.90
31747;DHT22;18319;48.974;8.462;2023-06-22T02:34:21;18.10;99.90
31747;DHT22;18319;48.974;8.462;2023-06-22T02:36:49;18.00;99.90
31747;DHT22;18319;48.974;8.462;2023-06-22T02:39:18;18.10;99.90
31747;DHT22;18319;48.974;8.462;2023-06-22T02:41:45;18.10;99.90
31747;DHT22;18319;48.974;8.462;2023-06-22T02:44:12;18.00;99.90
31747;DHT22;18319;48.974;8.462;2023-06-22T02:46:39;18.00;99.90
31747;DHT22;18319;48.974;8.462;2023-06-22T02:49:05;18.00;99.90
31747;DHT22;18319;48.974;8.462;2023-06-22T02:51:33;17.90;99.90
31747;DHT22;18319;48.974;8.462;2023-06-22T02:54:02;17.90;99.90
31747;DHT22;18319;48.974;8.462;2023-06-22T02:56:29;18.00;99.90
31747;DHT22;18319;48.974;8.462;2023-06-22T02:58:56;17.90;99.90
31747;DHT22;18319;48.974;8.462;2023-06-22T03:01:26;17.90;99.90
31747;DHT22;18319;48.974;8.462;2023-06-22T03:03:53;17.90;99.90
31747;DHT22;18319;48.974;8.462;2023-06-22T03:06:20;17.90;99.90
31747;DHT22;18319;48.974;8.462;2023-06-22T03:08:49;17.80;99.90
31747;DHT22;18319;48.974;8.462;2023-06-22T03:11:17;17.90;99.90
31747;DHT22;18319;48.974;8.462;2023-06-22T03:13:44;17.80;99.90
31747;DHT22;18319;48.974;8.462;2023-06-22T03:16:11;17.80;99.90
31747;DHT22;18319;48.974;8.462;2023-06-22T03:18:39;17.80;99.90
31747;DHT22;18319;48.974;8.462;2023-06-22T03:21:06;17.80;99.90
31747;DHT22;18319;48.974;8.462;2023-06-22T03:23:33;17.80;99.90
31747;DHT22;18319;48.974;8.462;2023-06-22T03:26:00;17.80;99.90
31747;DHT22;18319;48.974;8.462;2023-06-22T03:28:28;17.80;99.90
31747;DHT22;18319;48.974;8.462;2023-06-22T03:30:56;17.80;99.90
31747;DHT22;18319;48.974;8.462;2023-06-22T03:33:23;17.80;99.90
31747;DHT22;18319;48.974;8.462;2023-06-22T03:35:50;17.80;99.90
31747;DHT22;18319;48.974;8.462;2023-06-22T03:38:17;17.80;99.90
31747;DHT22;18319;48.974;8.462;2023-06-22T03:40:44;17.80;99.90
31747;DHT22;18319;48.974;8.462;2023-06-22T03:43:10;17.90;99.90
31747;DHT22;18319;48.974;8.462;2023-06-22T03:45:39;17.90;99.90
31747;DHT22;18319;48.974;8.462;2023-06-22T03:48:06;17.90;99.90
31747;DHT22;18319;48.974;8.462;2023-06-22T03:50:33;17.90;99.90
31747;DHT22;18319;48.974;8.462;2023-06-22T03:53:00;18.00;99.90
31747;DHT22;18319;48.974;8.462;2023-06-22T03:55:27;17.90;99.90
31747;DHT22;18319;48.974;8.462;2023-06-22T03:57:54;18.00;99.90
31747;DHT22;18319;48.974;8.462;2023-06-22T04:00:22;18.00;99.90
31747;DHT22;18319;48.974;8.462;2023-06-22T04:02:50;18.00;99.90
31747;DHT22;18319;48.974;8.462;2023-06-22T04:05:17;18.10;99.90
31747;DHT22;18319;48.974;8.462;2023-06-22T04:07:44;18.10;99.90
31747;DHT22;18319;48.974;8.462;2023-06-22T04:10:11;18.20;99.90
31747;DHT22;18319;48.974;8.462;2023-06-22T04:12:38;18.20;99.90
31747;DHT22;18319;48.974;8.462;2023-06-22T04:15:05;18.20;99.90
31747;DHT22;18319;48.974;8.462;2023-06-22T04:17:32;18.30;99.90
31747;DHT22;18319;48.974;8.462;2023-06-22T04:20:00;18.20;99.90
31747;DHT22;18319;48.974;8.462;2023-06-22T04:22:27;18.30;99.90
31747;DHT22;18319;48.974;8.462;2023-06-22T04:24:54;18.30;99.90
31747;DHT22;18319;48.974;8.462;2023-06-22T04:27:21;18.30;99.90
31747;DHT22;18319;48.974;8.462;2023-06-22T04:29:48;18.40;99.90
31747;DHT22;18319;48.974;8.462;2023-06-22T04:32:16;18.50;99.90
31747;DHT22;18319;48.974;8.462;2023-06-22T04:34:43;18.50;99.90
31747;DHT22;18319;48.974;8.462;2023-06-22T04:37:12;18.60;99.90
31747;DHT22;18319;48.974;8.462;2023-06-22T04:39:41;18.50;99.90
31747;DHT22;18319;48.974;8.462;2023-06-22T04:42:08;18.50;99.90
31747;DHT22;18319;48.974;8.462;2023-06-22T04:44:34;18.50;99.90
31747;DHT22;18319;48.974;8.462;2023-06-22T04:47:02;18.50;99.90
31747;DHT22;18319;48.974;8.462;2023-06-22T04:49:30;18.60;99.90
31747;DHT22;18319;48.974;8.462;2023-06-22T04:52:00;18.60;99.90
31747;DHT22;18319;48.974;8.462;2023-06-22T04:54:28;18.70;99.90
31747;DHT22;18319;48.974;8.462;2023-06-22T04:56:58;18.70;99.90
31747;DHT22;18319;48.974;8.462;2023-06-22T04:59:26;18.80;99.90
31747;DHT22;18319;48.974;8.462;2023-06-22T05:01:55;18.90;99.90
31747;DHT22;18319;48.974;8.462;2023-06-22T05:04:23;19.10;99.90
31747;DHT22;18319;48.974;8.462;2023-06-22T05:06:50;19.00;99.90
31747;DHT22;18319;48.974;8.462;2023-06-22T05:09:17;19.10;99.90
31747;DHT22;18319;48.974;8.462;2023-06-22T05:11:46;19.20;99.90
31747;DHT22;18319;48.974;8.462;2023-06-22T05:14:13;19.20;99.90
31747;DHT22;18319;48.974;8.462;2023-06-22T05:16:41;19.40;99.90
31747;DHT22;18319;48.974;8.462;2023-06-22T05:19:08;19.30;99.90
31747;DHT22;18319;48.974;8.462;2023-06-22T05:21:35;19.40;99.90
31747;DHT22;18319;48.974;8.462;2023-06-22T05:24:02;19.40;99.90
31747;DHT22;18319;48.974;8.462;2023-06-22T05:26:30;19.60;99.90
31747;DHT22;18319;48.974;8.462;2023-06-22T05:28:59;19.60;99.90
31747;DHT22;18319;48.974;8.462;2023-06-22T05:31:26;19.60;99.90
31747;DHT22;18319;48.974;8.462;2023-06-22T05:33:54;19.70;99.90
31747;DHT22;18319;48.974;8.462;2023-06-22T05:36:21;19.70;99.90
31747;DHT22;18319;48.974;8.462;2023-06-22T05:38:50;19.80;99.90
31747;DHT22;18319;48.974;8.462;2023-06-22T05:41:17;19.90;99.90
31747;DHT22;18319;48.974;8.462;2023-06-22T05:43:44;20.10;99.90
31747;DHT22;18319;48.974;8.462;2023-06-22T05:46:12;20.20;99.90
31747;DHT22;18319;48.974;8.462;2023-06-22T05:48:39;20.20;99.90
31747;DHT22;18319;48.974;8.462;2023-06-22T05:51:05;20.40;99.90
31747;DHT22;18319;48.974;8.462;2023-06-22T05:53:32;20.40;99.90
31747;DHT22;18319;48.974;8.462;2023-06-22T05:55:59;20.50;99.90
31747;DHT22;18319;48.974;8.462;2023-06-22T05:58:26;20.50;99.90
31747;DHT22;18319;48.974;8.462;2023-06-22T06:00:52;20.80;99.90
31747;DHT22;18319;48.974;8.462;2023-06-22T06:03:20;21.10;99.90
31747;DHT22;18319;48.974;8.462;2023-06-22T06:05:48;21.30;99.90
31747;DHT22;18319;48.974;8.462;2023-06-22T06:08:15;21.30;99.90
31747;DHT22;18319;48.974;8.462;2023-06-22T06:10:41;21.40;99.90
31747;DHT22;18319;48.974;8.462;2023-06-22T06:13:08;21.40;99.90
31747;DHT22;18319;48.974;8.462;2023-06-22T06:15:35;21.50;99.90
31747;DHT22;18319;48.974;8.462;2023-06-22T06:18:02;21.60;99.90
31747;DHT22;18319;48.974;8.462;2023-06-22T06:20:32;21.70;99.90
31747;DHT22;18319;48.974;8.462;2023-06-22T06:22:59;21.70;99.90
31747;DHT22;18319;48.974;8.462;2023-06-22T06:25:25;21.90;99.90
31747;DHT22;18319;48.974;8.462;2023-06-22T06:27:52;21.90;99.90
31747;DHT22;18319;48.974;8.462;2023-06-22T06:30:20;22.00;99.90
31747;DHT22;18319;48.974;8.462;2023-06-22T06:32:48;22.10;99.90
31747;DHT22;18319;48.974;8.462;2023-06-22T06:35:15;22.20;99.90
31747;DHT22;18319;48.974;8.462;2023-06-22T06:37:46;22.30;99.90
31747;DHT22;18319;48.974;8.462;2023-06-22T06:40:14;22.40;99.90
31747;DHT22;18319;48.974;8.462;2023-06-22T06:42:42;22.60;99.90
31747;DHT22;18319;48.974;8.462;2023-06-22T06:45:11;22.70;99.90
31747;DHT22;18319;48.974;8.462;2023-06-22T06:47:38;23.00;99.90
31747;DHT22;18319;48.974;8.462;2023-06-22T06:50:06;23.10;99.90
31747;DHT22;18319;48.974;8.462;2023-06-22T06:52:33;23.20;99.90
31747;DHT22;18319;48.974;8.462;2023-06-22T06:55:02;23.20;99.90
31747;DHT22;18319;48.974;8.462;2023-06-22T06:57:30;23.40;99.90
31747;DHT22;18319;48.974;8.462;2023-06-22T06:59:59;23.50;99.90
31747;DHT22;18319;48.974;8.462;2023-06-22T07:02:27;23.60;99.90
31747;DHT22;18319;48.974;8.462;2023-06-22T07:04:54;23.60;99.90
31747;DHT22;18319;48.974;8.462;2023-06-22T07:07:21;23.60;99.90
31747;DHT22;18319;48.974;8.462;2023-06-22T07:09:48;23.60;99.90
31747;DHT22;18319;48.974;8.462;2023-06-22T07:12:16;23.70;99.90
31747;DHT22;18319;48.974;8.462;2023-06-22T07:14:43;23.60;99.90
31747;DHT22;18319;48.974;8.462;2023-06-22T07:17:10;23.70;99.90
31747;DHT22;18319;48.974;8.462;2023-06-22T07:19:36;23.80;99.90
31747;DHT22;18319;48.974;8.462;2023-06-22T07:22:04;23.80;99.90
31747;DHT22;18319;48.974;8.462;2023-06-22T07:24:31;23.90;99.90
31747;DHT22;18319;48.974;8.462;2023-06-22T07:26:58;24.10;99.90
31747;DHT22;18319;48.974;8.462;2023-06-22T07:29:27;24.00;99.90
31747;DHT22;18319;48.974;8.462;2023-06-22T07:31:53;24.10;99.90
31747;DHT22;18319;48.974;8.462;2023-06-22T07:34:22;23.90;99.90
31747;DHT22;18319;48.974;8.462;2023-06-22T07:36:49;24.20;99.90
31747;DHT22;18319;48.974;8.462;2023-06-22T07:39:15;24.40;99.90
31747;DHT22;18319;48.974;8.462;2023-06-22T07:41:42;24.40;99.90
31747;DHT22;18319;48.974;8.462;2023-06-22T07:44:09;24.70;99.90
31747;DHT22;18319;48.974;8.462;2023-06-22T07:46:37;24.90;99.90
31747;DHT22;18319;48.974;8.462;2023-06-22T07:49:04;25.10;99.90
31747;DHT22;18319;48.974;8.462;2023-06-22T07:51:30;25.20;99.90
31747;DHT22;18319;48.974;8.462;2023-06-22T07:53:57;25.50;99.90
31747;DHT22;18319;48.974;8.462;2023-06-22T07:56:24;26.10;99.90
31747;DHT22;18319;48.974;8.462;2023-06-22T07:58:51;26.60;99.90
31747;DHT22;18319;48.974;8.462;2023-06-22T08:01:18;27.00;99.90
31747;DHT22;18319;48.974;8.462;2023-06-22T08:03:48;28.10;99.90
31747;DHT22;18319;48.974;8.462;2023-06-22T08:06:17;28.00;99.90
31747;DHT22;18319;48.974;8.462;2023-06-22T08:08:44;28.70;99.90
31747;DHT22;18319;48.974;8.462;2023-06-22T08:11:13;29.20;99.90
31747;DHT22;18319;48.974;8.462;2023-06-22T08:13:40;29.80;99.90
31747;DHT22;18319;48.974;8.462;2023-06-22T08:16:07;30.00;99.90
31747;DHT22;18319;48.974;8.462;2023-06-22T08:18:33;30.00;99.90
31747;DHT22;18319;48.974;8.462;2023-06-22T08:21:02;29.70;99.90
31747;DHT22;18319;48.974;8.462;2023-06-22T08:23:28;30.60;99.90
31747;DHT22;18319;48.974;8.462;2023-06-22T08:25:55;30.90;98.70
31747;DHT22;18319;48.974;8.462;2023-06-22T08:28:22;30.70;97.20
31747;DHT22;18319;48.974;8.462;2023-06-22T08:30:49;30.90;96.20
31747;DHT22;18319;48.974;8.462;2023-06-22T08:33:15;30.40;94.20
31747;DHT22;18319;48.974;8.462;2023-06-22T08:35:48;30.20;95.80
31747;DHT22;18319;48.974;8.462;2023-06-22T08:38:17;29.70;96.30
31747;DHT22;18319;48.974;8.462;2023-06-22T08:40:44;29.70;97.50
31747;DHT22;18319;48.974;8.462;2023-06-22T08:43:11;29.80;97.80
31747;DHT22;18319;48.974;8.462;2023-06-22T08:45:37;29.70;96.20
31747;DHT22;18319;48.974;8.462;2023-06-22T08:48:05;29.30;97.40
31747;DHT22;18319;48.974;8.462;2023-06-22T08:50:31;29.70;98.20
31747;DHT22;18319;48.974;8.462;2023-06-22T08:52:58;29.40;96.60
31747;DHT22;18319;48.974;8.462;2023-06-22T08:55:26;30.00;97.90
31747;DHT22;18319;48.974;8.462;2023-06-22T08:57:53;30.00;96.80
31747;DHT22;18319;48.974;8.462;2023-06-22T09:00:20;30.30;98.30
31747;DHT22;18319;48.974;8.462;2023-06-22T09:02:47;30.60;95.50
31747;DHT22;18319;48.974;8.462;2023-06-22T09:05:14;30.70;96.10
31747;DHT22;18319;48.974;8.462;2023-06-22T09:07:41;30.70;94.50
31747;DHT22;18319;48.974;8.462;2023-06-22T09:10:09;30.70;94.40
31747;DHT22;18319;48.974;8.462;2023-06-22T09:12:37;30.60;94.30
31747;DHT22;18319;48.974;8.462;2023-06-22T09:15:05;30.80;92.60
31747;DHT22;18319;48.974;8.462;2023-06-22T09:17:33;30.70;92.50
31747;DHT22;18319;48.974;8.462;2023-06-22T09:20:00;30.40;90.60
31747;DHT22;18319;48.974;8.462;2023-06-22T09:22:31;30.60;93.90
31747;DHT22;18319;48.974;8.462;2023-06-22T09:24:58;30.40;92.00
31747;DHT22;18319;48.974;8.462;2023-06-22T09:27:26;30.40;95.00
31747;DHT22;18319;48.974;8.462;2023-06-22T09:29:54;30.50;93.80
31747;DHT22;18319;48.974;8.462;2023-06-22T09:32:21;30.80;90.90
31747;DHT22;18319;48.974;8.462;2023-06-22T09:34:48;31.00;93.80
31747;DHT22;18319;48.974;8.462;2023-06-22T09:37:14;31.00;87.80
31747;DHT22;18319;48.974;8.462;2023-06-22T09:39:43;30.60;83.50
31747;DHT22;18319;48.974;8.462;2023-06-22T09:42:12;30.30;85.00
31747;DHT22;18319;48.974;8.462;2023-06-22T09:44:39;30.50;88.80
31747;DHT22;18319;48.974;8.462;2023-06-22T09:47:07;30.60;91.00
31747;DHT22;18319;48.974;8.462;2023-06-22T09:49:34;30.50;92.00
31747;DHT22;18319;48.974;8.462;2023-06-22T09:52:01;30.60;92.10
31747;DHT22;18319;48.974;8.462;2023-06-22T09:54:27;30.60;89.40
31747;DHT22;18319;48.974;8.462;2023-06-22T09:56:54;30.20;90.20
31747;DHT22;18319;48.974;8.462;2023-06-22T09:59:21;30.70;88.80
31747;DHT22;18319;48.974;8.462;2023-06-22T10:01:48;30.80;90.30
31747;DHT22;18319;48.974;8.462;2023-06-22T10:04:16;30.50;89.00
31747;DHT22;18319;48.974;8.462;2023-06-22T10:06:42;30.80;90.30
31747;DHT22;18319;48.974;8.462;2023-06-22T10:09:09;30.60;89.50
31747;DHT22;18319;48.974;8.462;2023-06-22T10:11:36;30.50;87.20
31747;DHT22;18319;48.974;8.462;2023-06-22T10:14:03;30.50;83.70
31747;DHT22;18319;48.974;8.462;2023-06-22T10:16:31;30.60;88.20
31747;DHT22;18319;48.974;8.462;2023-06-22T10:18:58;30.50;88.10
31747;DHT22;18319;48.974;8.462;2023-06-22T10:21:26;30.70;87.80
31747;DHT22;18319;48.974;8.462;2023-06-22T10:23:54;31.10;88.10
31747;DHT22;18319;48.974;8.462;2023-06-22T10:26:20;31.40;89.90
31747;DHT22;18319;48.974;8.462;2023-06-22T10:28:47;31.50;89.70
31747;DHT22;18319;48.974;8.462;2023-06-22T10:31:14;31.60;89.00
31747;DHT22;18319;48.974;8.462;2023-06-22T10:33:42;31.60;84.40
31747;DHT22;18319;48.974;8.462;2023-06-22T10:36:09;31.30;87.60
31747;DHT22;18319;48.974;8.462;2023-06-22T10:38:37;31.20;88.50
31747;DHT22;18319;48.974;8.462;2023-06-22T10:41:04;31.00;86.80
31747;DHT22;18319;48.974;8.462;2023-06-22T10:43:31;31.10;87.10
31747;DHT22;18319;48.974;8.462;2023-06-22T10:45:58;30.90;89.40
31747;DHT22;18319;48.974;8.462;2023-06-22T10:48:24;30.80;91.20
31747;DHT22;18319;48.974;8.462;2023-06-22T10:50:51;30.80;87.60
31747;DHT22;18319;48.974;8.462;2023-06-22T10:53:18;30.70;88.00
31747;DHT22;18319;48.974;8.462;2023-06-22T10:55:46;30.70;90.70
31747;DHT22;18319;48.974;8.462;2023-06-22T10:58:13;30.90;91.00
31747;DHT22;18319;48.974;8.462;2023-06-22T11:00:40;30.80;87.90
31747;DHT22;18319;48.974;8.462;2023-06-22T11:03:07;30.60;88.80
31747;DHT22;18319;48.974;8.462;2023-06-22T11:05:33;31.00;90.50
31747;DHT22;18319;48.974;8.462;2023-06-22T11:08:00;31.20;85.10
31747;DHT22;18319;48.974;8.462;2023-06-22T11:10:27;31.00;88.90
31747;DHT22;18319;48.974;8.462;2023-06-22T11:12:55;30.90;85.00
31747;DHT22;18319;48.974;8.462;2023-06-22T11:15:23;30.60;87.70
31747;DHT22;18319;48.974;8.462;2023-06-22T11:17:50;30.40;85.30
31747;DHT22;18319;48.974;8.462;2023-06-22T11:20:17;30.30;85.80
31747;DHT22;18319;48.974;8.462;2023-06-22T11:22:43;30.30;88.20
31747;DHT22;18319;48.974;8.462;2023-06-22T11:25:10;30.50;86.80
31747;DHT22;18319;48.974;8.462;2023-06-22T11:27:38;30.90;87.20
31747;DHT22;18319;48.974;8.462;2023-06-22T11:30:07;31.10;86.70
31747;DHT22;18319;48.974;8.462;2023-06-22T11:32:34;31.40;85.00
31747;DHT22;18319;48.974;8.462;2023-06-22T11:35:01;31.30;85.40
31747;DHT22;18319;48.974;8.462;2023-06-22T11:37:28;31.40;82.40
31747;DHT22;18319;48.974;8.462;2023-06-22T11:39:54;31.60;87.50
31747;DHT22;18319;48.974;8.462;2023-06-22T11:42:21;31.40;86.90
31747;DHT22;18319;48.974;8.462;2023-06-22T11:44:49;30.90;85.40
31747;DHT22;18319;48.974;8.462;2023-06-22T11:47:17;30.60;89.60
31747;DHT22;18319;48.974;8.462;2023-06-22T11:49:43;30.60;89.00
31747;DHT22;18319;48.974;8.462;2023-06-22T11:52:10;30.50;90.90
31747;DHT22;18319;48.974;8.462;2023-06-22T11:54:37;30.40;88.50
31747;DHT22;18319;48.974;8.462;2023-06-22T11:57:04;30.50;90.90
31747;DHT22;18319;48.974;8.462;2023-06-22T11:59:31;30.40;90.10
31747;DHT22;18319;48.974;8.462;2023-06-22T12:02:00;30.40;90.80
31747;DHT22;18319;48.974;8.462;2023-06-22T12:04:28;30.50;92.20
31747;DHT22;18319;48.974;8.462;2023-06-22T12:06:55;30.80;89.40
31747;DHT22;18319;48.974;8.462;2023-06-22T12:09:21;31.30;83.90
31747;DHT22;18319;48.974;8.462;2023-06-22T12:11:48;31.30;84.20
31747;DHT22;18319;48.974;8.462;2023-06-22T12:14:15;31.10;91.00
31747;DHT22;18319;48.974;8.462;2023-06-22T12:16:41;31.00;91.10
31747;DHT22;18319;48.974;8.462;2023-06-22T12:19:09;30.90;88.40
31747;DHT22;18319;48.974;8.462;2023-06-22T12:21:38;31.20;85.10
31747;DHT22;18319;48.974;8.462;2023-06-22T12:24:06;31.40;85.80
31747;DHT22;18319;48.974;8.462;2023-06-22T12:26:33;31.30;90.00
31747;DHT22;18319;48.974;8.462;2023-06-22T12:28:59;31.10;85.60
31747;DHT22;18319;48.974;8.462;2023-06-22T12:31:26;31.00;81.30
31747;DHT22;18319;48.974;8.462;2023-06-22T12:33:53;31.10;85.00
31747;DHT22;18319;48.974;8.462;2023-06-22T12:36:20;31.40;83.80
31747;DHT22;18319;48.974;8.462;2023-06-22T12:38:48;31.30;83.40
31747;DHT22;18319;48.974;8.462;2023-06-22T12:41:14;31.20;83.20
31747;DHT22;18319;48.974;8.462;2023-06-22T12:43:41;31.20;83.20
31747;DHT22;18319;48.974;8.462;2023-06-22T12:46:08;31.30;87.40
31747;DHT22;18319;48.974;8.462;2023-06-22T12:48:34;31.10;87.00
31747;DHT22;18319;48.974;8.462;2023-06-22T12:51:07;30.90;92.00
31747;DHT22;18319;48.974;8.462;2023-06-22T12:53:33;30.90;93.40
31747;DHT22;18319;48.974;8.462;2023-06-22T12:56:02;31.10;90.10
31747;DHT22;18319;48.974;8.462;2023-06-22T12:58:28;31.20;92.40
31747;DHT22;18319;48.974;8.462;2023-06-22T13:00:55;31.20;90.10
31747;DHT22;18319;48.974;8.462;2023-06-22T13:03:22;31.30;91.40
31747;DHT22;18319;48.974;8.462;2023-06-22T13:05:50;31.40;88.80
31747;DHT22;18319;48.974;8.462;2023-06-22T13:08:17;31.40;90.60
31747;DHT22;18319;48.974;8.462;2023-06-22T13:10:44;31.60;84.50
31747;DHT22;18319;48.974;8.462;2023-06-22T13:13:12;31.60;90.10
31747;DHT22;18319;48.974;8.462;2023-06-22T13:15:39;31.50;90.40
31747;DHT22;18319;48.974;8.462;2023-06-22T13:18:05;31.30;91.90
31747;DHT22;18319;48.974;8.462;2023-06-22T13:20:32;31.10;91.70
31747;DHT22;18319;48.974;8.462;2023-06-22T13:22:59;30.80;89.30
31747;DHT22;18319;48.974;8.462;2023-06-22T13:25:25;30.90;90.40
31747;DHT22;18319;48.974;8.462;2023-06-22T13:27:52;31.10;87.70
31747;DHT22;18319;48.974;8.462;2023-06-22T13:30:20;31.10;89.50
31747;DHT22;18319;48.974;8.462;2023-06-22T13:32:47;30.90;92.10
31747;DHT22;18319;48.974;8.462;2023-06-22T13:35:14;30.60;91.30
31747;DHT22;18319;48.974;8.462;2023-06-22T13:37:41;30.30;91.00
31747;DHT22;18319;48.974;8.462;2023-06-22T13:40:08;30.60;92.00
31747;DHT22;18319;48.974;8.462;2023-06-22T13:42:35;30.80;92.90
31747;DHT22;18319;48.974;8.462;2023-06-22T13:45:02;30.80;92.20
31747;DHT22;18319;48.974;8.462;2023-06-22T13:47:31;30.40;94.20
31747;DHT22;18319;48.974;8.462;2023-06-22T13:49:57;29.80;94.40
31747;DHT22;18319;48.974;8.462;2023-06-22T13:52:24;29.70;94.20
31747;DHT22;18319;48.974;8.462;2023-06-22T13:54:51;29.70;93.20
31747;DHT22;18319;48.974;8.462;2023-06-22T13:57:18;30.00;95.00
31747;DHT22;18319;48.974;8.462;2023-06-22T13:59:45;30.70;95.80
31747;DHT22;18319;48.974;8.462;2023-06-22T14:02:11;30.90;96.20
31747;DHT22;18319;48.974;8.462;2023-06-22T14:04:40;30.20;97.60
31747;DHT22;18319;48.974;8.462;2023-06-22T14:07:07;29.40;99.00
31747;DHT22;18319;48.974;8.462;2023-06-22T14:09:34;29.10;99.90
31747;DHT22;18319;48.974;8.462;2023-06-22T14:12:03;28.80;99.90
31747;DHT22;18319;48.974;8.462;2023-06-22T14:14:30;28.50;99.90
31747;DHT22;18319;48.974;8.462;2023-06-22T14:16:57;28.10;99.90
31747;DHT22;18319;48.974;8.462;2023-06-22T14:19:24;27.90;99.90
31747;DHT22;18319;48.974;8.462;2023-06-22T14:21:52;27.70;99.90
31747;DHT22;18319;48.974;8.462;2023-06-22T14:24:19;27.60;99.90
31747;DHT22;18319;48.974;8.462;2023-06-22T14:26:45;27.40;99.90
31747;DHT22;18319;48.974;8.462;2023-06-22T14:29:12;27.30;99.90
31747;DHT22;18319;48.974;8.462;2023-06-22T14:31:39;27.20;99.90
31747;DHT22;18319;48.974;8.462;2023-06-22T14:34:06;27.20;99.90
31747;DHT22;18319;48.974;8.462;2023-06-22T14:36:32;27.30;99.90
31747;DHT22;18319;48.974;8.462;2023-06-22T14:39:00;27.40;99.90
31747;DHT22;18319;48.974;8.462;2023-06-22T14:41:29;27.70;99.90
31747;DHT22;18319;48.974;8.462;2023-06-22T14:43:55;28.10;99.90
31747;DHT22;18319;48.974;8.462;2023-06-22T14:46:22;28.50;99.90
31747;DHT22;18319;48.974;8.462;2023-06-22T14:48:49;29.00;99.90
31747;DHT22;18319;48.974;8.462;2023-06-22T14:51:16;29.40;97.10
31747;DHT22;18319;48.974;8.462;2023-06-22T14:53:44;29.50;96.40
31747;DHT22;18319;48.974;8.462;2023-06-22T14:56:12;29.60;96.10
31747;DHT22;18319;48.974;8.462;2023-06-22T14:58:40;29.50;93.30
31747;DHT22;18319;48.974;8.462;2023-06-22T15:01:11;29.30;94.30
31747;DHT22;18319;48.974;8.462;2023-06-22T15:03:38;29.30;96.80
31747;DHT22;18319;48.974;8.462;2023-06-22T15:06:05;29.30;95.30
31747;DHT22;18319;48.974;8.462;2023-06-22T15:08:33;29.40;94.00
31747;DHT22;18319;48.974;8.462;2023-06-22T15:11:00;29.40;93.50
31747;DHT22;18319;48.974;8.462;2023-06-22T15:13:30;29.30;97.50
31747;DHT22;18319;48.974;8.462;2023-06-22T15:15:59;29.20;94.60
31747;DHT22;18319;48.974;8.462;2023-06-22T15:18:26;29.00;92.90
31747;DHT22;18319;48.974;8.462;2023-06-22T15:20:53;28.90;93.60
31747;DHT22;18319;48.974;8.462;2023-06-22T15:23:19;29.00;92.50
31747;DHT22;18319;48.974;8.462;2023-06-22T15:25:46;29.10;91.80
31747;DHT22;18319;48.974;8.462;2023-06-22T15:28:13;29.10;93.90
31747;DHT22;18319;48.974;8.462;2023-06-22T15:30:41;29.00;91.70